Pagina principale
METAR-TAF:

METAR-TAF

Aeroporti :

Aeroporto di Lamezia Terme

Lamezia Terme, Italia

latitudine: 38-54N, longitudine: 016-15E, altezza: 15 m

Osservazione

Il bollettino è stato emesso 53 minuti fa, alle 17:50 UTC
Vento 12 kt da ovest/sud-ovest
Temperature 17°C
Umidità 82%
Pressione 1010 hPa
Visibilità 10 km o più
Nuvoloso ad un'altezza di 2000 ft

METAR: LICA 191750Z 25012KT 9999 BKN020 17/14 Q1010

Ora: 20:43 (18:43 UTC)

Previsione

Il bollettino è stato emesso 1 ora e 43 minuti fa, alle 17:00 UTC
Previsione valida dal 19 alle 18 UTC al 20 alle 18 UTC
Vento 12 kt da ovest
Visibilità 10 km o più
Nubi sparse ad un'altezza di 3000 ft

TAF: LICA 191700Z 1918/2018 27012KT 9999 SCT030

Osservazioni e previsioni meteorologiche di più di 4000 aeroporti (messaggi METAR e TAF).

Le stazioni disponibili sono rappresentate dai dischi gialli e rossi sulla carta.

Puntare il mouse per vedere il nome della stazione.

Clicca sopra per visualizzare le osservazioni e previsioni meteorologiche.

Per cambiare la mappa : fare clic sui pulsanti verdi con una croce nera per ingrandire, il pulsante verde con un trattino per diminuire, o sulla freccia verde per le mappe adiacenti.


METAR-TAF: